Time;durP1;ratioP1;P1;durP2;ratioP2;P2;SDS_P1;SDS_P2;PMS_P1;PMS_P2;Temp;Humidity;BMP_temperature;BMP_pressure;BME280_temperature;BME280_humidity;BME280_pressure;Samples;Min_cycle;Max_cycle;Signal;HPM_P1;HPM_P2
2022/03/16 00:00:57;;;;;;;25.40;19.70;;;;;;;;;;5075218;28;20585;-63
2022/03/16 00:03:23;;;;;;;21.93;18.80;;;;;;;;;;5075144;28;20569;-63
2022/03/16 00:05:49;;;;;;;20.83;17.63;;;;;;;;;;5075049;28;20173;-64
2022/03/16 00:08:15;;;;;;;26.33;19.37;;;;;;;;;;5056993;28;20235;-63
2022/03/16 00:10:41;;;;;;;23.90;18.50;;;;;;;;;;5074890;28;20180;-63
2022/03/16 00:13:07;;;;;;;23.47;19.13;;;;;;;;;;5075094;28;20735;-64
2022/03/16 00:15:33;;;;;;;24.77;18.80;;;;;;;;;;5075012;28;20201;-63
2022/03/16 00:17:59;;;;;;;23.20;18.60;;;;;;;;;;5074609;28;20216;-63
2022/03/16 00:20:25;;;;;;;22.70;19.07;;;;;;;;;;5075236;28;20178;-63
2022/03/16 00:22:51;;;;;;;23.33;19.33;;;;;;;;;;5056756;28;20749;-63
2022/03/16 00:25:17;;;;;;;23.90;19.87;;;;;;;;;;5075059;28;20579;-62
2022/03/16 00:27:43;;;;;;;25.10;18.77;;;;;;;;;;5074797;28;20181;-61
2022/03/16 00:30:10;;;;;;;24.83;19.67;;;;;;;;;;5075367;28;20228;-63
2022/03/16 00:32:36;;;;;;;28.23;20.37;;;;;;;;;;5074004;28;20208;-63
2022/03/16 00:35:02;;;;;;;26.37;19.63;;;;;;;;;;5073720;28;20232;-62
2022/03/16 00:37:28;;;;;;;25.73;19.90;;;;;;;;;;5075559;28;20185;-62
2022/03/16 00:39:54;;;;;;;25.50;20.10;;;;;;;;;;5075074;28;20178;-64
2022/03/16 00:42:20;;;;;;;28.00;20.83;;;;;;;;;;5056270;28;20176;-63
2022/03/16 00:44:46;;;;;;;26.33;21.27;;;;;;;;;;5074981;28;20204;-62
2022/03/16 00:47:12;;;;;;;29.08;24.77;;;;;;;;;;5055240;28;20387;-62
2022/03/16 00:49:38;;;;;;;25.43;20.33;;;;;;;;;;5057116;28;20185;-62
2022/03/16 00:52:04;;;;;;;27.67;21.10;;;;;;;;;;5056475;28;20267;-65
2022/03/16 00:54:30;;;;;;;28.13;21.80;;;;;;;;;;5074453;28;20736;-62
2022/03/16 00:56:56;;;;;;;45.33;30.13;;;;;;;;;;5074341;28;20180;-62
2022/03/16 00:59:22;;;;;;;43.60;28.73;;;;;;;;;;5056199;28;20174;-63
2022/03/16 01:01:48;;;;;;;42.47;28.53;;;;;;;;;;5056611;28;20182;-62
2022/03/16 01:04:14;;;;;;;42.63;29.53;;;;;;;;;;5056513;28;20623;-65
2022/03/16 01:06:40;;;;;;;28.73;20.27;;;;;;;;;;5074702;28;20637;-62
2022/03/16 01:09:06;;;;;;;24.17;19.73;;;;;;;;;;5074900;28;20185;-64
2022/03/16 01:11:32;;;;;;;29.50;21.17;;;;;;;;;;5074588;28;20555;-62
2022/03/16 01:13:58;;;;;;;28.23;21.03;;;;;;;;;;5060385;28;20201;-62
2022/03/16 01:16:24;;;;;;;27.33;19.80;;;;;;;;;;5078582;28;20618;-63
2022/03/16 01:18:50;;;;;;;28.60;21.00;;;;;;;;;;5078650;28;20178;-63
2022/03/16 01:21:16;;;;;;;26.47;20.17;;;;;;;;;;5060165;28;20641;-61
2022/03/16 01:23:42;;;;;;;31.20;20.10;;;;;;;;;;5078185;28;20218;-64
2022/03/16 01:26:08;;;;;;;30.87;20.67;;;;;;;;;;5078355;28;20185;-63
2022/03/16 01:28:34;;;;;;;27.43;20.60;;;;;;;;;;5060393;28;20596;-63
2022/03/16 01:31:01;;;;;;;32.23;20.67;;;;;;;;;;5078195;28;20264;-62
2022/03/16 01:33:27;;;;;;;28.30;20.23;;;;;;;;;;5077952;28;20576;-62
2022/03/16 01:35:53;;;;;;;26.70;20.07;;;;;;;;;;5077868;28;20201;-64
2022/03/16 01:38:19;;;;;;;30.23;19.60;;;;;;;;;;5077903;28;20281;-61
2022/03/16 01:40:45;;;;;;;27.20;20.17;;;;;;;;;;5059795;28;20177;-67
2022/03/16 01:43:11;;;;;;;24.07;18.33;;;;;;;;;;5077358;28;20197;-63
2022/03/16 01:45:39;;;;;;;26.57;19.10;;;;;;;;;;5059373;28;20189;-62
2022/03/16 01:48:05;;;;;;;24.57;18.93;;;;;;;;;;5077595;28;20181;-63
2022/03/16 01:50:30;;;;;;;24.80;18.30;;;;;;;;;;5059653;28;20177;-62
2022/03/16 01:52:56;;;;;;;26.07;18.03;;;;;;;;;;5077182;28;20247;-63
2022/03/16 01:55:22;;;;;;;24.53;16.37;;;;;;;;;;5077138;28;20201;-64
2022/03/16 01:57:48;;;;;;;21.30;16.90;;;;;;;;;;5059065;28;20221;-64
2022/03/16 02:00:15;;;;;;;23.73;16.50;;;;;;;;;;5077190;28;20198;-64
2022/03/16 02:02:41;;;;;;;21.37;16.63;;;;;;;;;;5077399;28;20344;-63
2022/03/16 02:05:07;;;;;;;22.00;15.77;;;;;;;;;;5059010;28;20280;-64
2022/03/16 02:07:33;;;;;;;20.42;17.83;;;;;;;;;;5075848;28;20383;-62
2022/03/16 02:10:00;;;;;;;20.95;17.85;;;;;;;;;;5075829;28;20440;-64
2022/03/16 02:12:26;;;;;;;18.60;16.60;;;;;;;;;;5075832;28;20855;-64
2022/03/16 02:14:53;;;;;;;19.87;13.80;;;;;;;;;;5077382;28;20209;-63
2022/03/16 02:17:19;;;;;;;19.47;14.73;;;;;;;;;;5077265;28;20178;-63
2022/03/16 02:19:45;;;;;;;19.57;14.43;;;;;;;;;;5077034;28;20261;-62
2022/03/16 02:22:13;;;;;;;18.50;14.10;;;;;;;;;;5059103;28;20586;-63
2022/03/16 02:24:40;;;;;;;19.37;14.07;;;;;;;;;;5076832;28;20180;-64
2022/03/16 02:27:06;;;;;;;17.80;14.97;;;;;;;;;;5059188;28;20250;-64
2022/03/16 02:29:34;;;;;;;16.20;13.60;;;;;;;;;;5077078;28;20209;-63
2022/03/16 02:32:00;;;;;;;18.67;14.40;;;;;;;;;;5058935;28;20178;-66
2022/03/16 02:34:26;;;;;;;17.23;14.07;;;;;;;;;;5076757;28;20206;-63
2022/03/16 02:36:52;;;;;;;17.27;14.50;;;;;;;;;;5076733;28;20543;-63
2022/03/16 02:39:18;;;;;;;18.73;13.97;;;;;;;;;;5076324;28;20547;-63
2022/03/16 02:41:47;;;;;;;17.87;14.87;;;;;;;;;;5076573;28;20637;-62
2022/03/16 02:44:13;;;;;;;20.17;17.27;;;;;;;;;;5075508;28;20387;-64
2022/03/16 02:46:39;;;;;;;19.37;14.77;;;;;;;;;;5076482;28;20182;-63
2022/03/16 02:49:05;;;;;;;18.80;14.70;;;;;;;;;;5076496;28;20177;-63
2022/03/16 02:51:31;;;;;;;17.87;14.73;;;;;;;;;;5076300;28;20180;-62
2022/03/16 02:53:57;;;;;;;18.80;14.33;;;;;;;;;;5075810;28;20202;-63
2022/03/16 02:56:27;;;;;;;17.43;13.20;;;;;;;;;;5057886;28;20184;-63
2022/03/16 02:58:53;;;;;;;17.53;13.50;;;;;;;;;;5075903;28;20601;-62
2022/03/16 03:01:19;;;;;;;18.87;13.37;;;;;;;;;;5075782;28;20174;-63
2022/03/16 03:03:45;;;;;;;15.40;12.60;;;;;;;;;;5057951;28;20679;-63
2022/03/16 03:06:11;;;;;;;14.53;12.90;;;;;;;;;;5076266;28;20258;-64
2022/03/16 03:08:36;;;;;;;16.50;13.77;;;;;;;;;;5057862;28;20177;-69
2022/03/16 03:11:03;;;;;;;18.10;13.87;;;;;;;;;;5057635;28;20181;-63
2022/03/16 03:13:29;;;;;;;17.93;14.03;;;;;;;;;;5076010;28;20197;-64
2022/03/16 03:15:55;;;;;;;16.30;13.73;;;;;;;;;;5058013;28;20575;-63
2022/03/16 03:18:21;;;;;;;17.27;13.90;;;;;;;;;;5058244;28;20182;-63
2022/03/16 03:20:47;;;;;;;17.67;13.00;;;;;;;;;;5075571;28;20174;-63
2022/03/16 03:23:13;;;;;;;20.17;14.57;;;;;;;;;;5092375;22;20230;-60
2022/03/16 03:25:38;;;;;;;18.67;13.83;;;;;;;;;;5095182;28;20169;-61
2022/03/16 03:28:04;;;;;;;21.17;14.97;;;;;;;;;;5077295;28;20185;-61
2022/03/16 03:30:30;;;;;;;18.70;14.37;;;;;;;;;;5076979;28;20177;-60
2022/03/16 03:32:56;;;;;;;20.60;13.73;;;;;;;;;;5094757;28;20648;-61
2022/03/16 03:35:22;;;;;;;16.53;12.80;;;;;;;;;;5076113;28;20211;-61
2022/03/16 03:37:51;;;;;;;17.20;13.00;;;;;;;;;;5094852;28;20728;-62
2022/03/16 03:40:16;;;;;;;18.10;14.13;;;;;;;;;;5076616;28;20203;-60
2022/03/16 03:42:42;;;;;;;18.50;12.70;;;;;;;;;;5094643;28;20169;-60
2022/03/16 03:45:08;;;;;;;18.43;13.27;;;;;;;;;;5095271;28;20189;-61
2022/03/16 03:47:34;;;;;;;15.10;12.60;;;;;;;;;;5094773;28;20252;-62
2022/03/16 03:50:00;;;;;;;14.10;11.73;;;;;;;;;;5094523;28;20598;-60
2022/03/16 03:52:26;;;;;;;16.30;11.67;;;;;;;;;;5095175;28;20184;-60
2022/03/16 03:54:52;;;;;;;15.47;11.93;;;;;;;;;;5094374;28;20291;-61
2022/03/16 03:57:18;;;;;;;17.60;12.83;;;;;;;;;;5095129;28;20643;-61
2022/03/16 03:59:44;;;;;;;15.30;10.57;;;;;;;;;;5094985;28;20566;-61
2022/03/16 04:02:10;;;;;;;14.90;11.20;;;;;;;;;;5094584;28;20180;-61
2022/03/16 04:04:36;;;;;;;14.43;11.10;;;;;;;;;;5094442;28;20223;-61
2022/03/16 04:07:02;;;;;;;16.13;11.80;;;;;;;;;;5094544;28;20206;-60
2022/03/16 04:09:28;;;;;;;14.50;11.13;;;;;;;;;;5094651;28;20690;-61
2022/03/16 04:11:54;;;;;;;15.63;10.97;;;;;;;;;;5094192;28;20209;-61
2022/03/16 04:14:20;;;;;;;11.67;10.20;;;;;;;;;;5094166;28;20247;-61
2022/03/16 04:16:46;;;;;;;13.57;10.50;;;;;;;;;;5094510;28;20173;-60
2022/03/16 04:19:12;;;;;;;17.20;10.10;;;;;;;;;;5094376;28;20173;-61
2022/03/16 04:21:38;;;;;;;13.80;10.60;;;;;;;;;;5094736;28;20180;-61
2022/03/16 04:24:04;;;;;;;15.23;10.40;;;;;;;;;;5094461;28;20639;-61
2022/03/16 04:26:30;;;;;;;13.60;10.90;;;;;;;;;;5094498;28;20173;-61
2022/03/16 04:28:56;;;;;;;14.30;10.87;;;;;;;;;;5094162;28;20169;-61
2022/03/16 04:31:22;;;;;;;13.67;9.70;;;;;;;;;;5076333;28;20560;-61
2022/03/16 04:33:48;;;;;;;11.80;9.80;;;;;;;;;;5094334;28;20728;-61
2022/03/16 04:36:14;;;;;;;12.40;10.43;;;;;;;;;;5094073;28;20185;-60
2022/03/16 04:38:40;;;;;;;12.93;11.52;;;;;;;;;;5074774;28;20390;-60
2022/03/16 04:41:06;;;;;;;14.90;11.83;;;;;;;;;;5093282;28;20381;-60
2022/03/16 04:43:32;;;;;;;14.15;11.85;;;;;;;;;;5093179;28;20440;-61
2022/03/16 04:45:58;;;;;;;14.15;12.63;;;;;;;;;;5074683;28;20750;-59
2022/03/16 04:48:24;;;;;;;14.57;11.40;;;;;;;;;;5092994;28;20791;-61
2022/03/16 04:50:49;;;;;;;14.98;12.18;;;;;;;;;;5093103;28;20370;-61
2022/03/16 04:53:15;;;;;;;13.80;11.43;;;;;;;;;;5092803;28;20448;-61
2022/03/16 04:55:42;;;;;;;13.73;11.85;;;;;;;;;;5092704;28;20869;-61
2022/03/16 04:58:08;;;;;;;14.63;10.95;;;;;;;;;;5092857;28;20394;-61
2022/03/16 05:00:35;;;;;;;11.65;10.48;;;;;;;;;;5092596;28;20789;-61
2022/03/16 05:03:01;;;;;;;11.77;10.60;;;;;;;;;;5092693;28;20465;-60
2022/03/16 05:05:28;;;;;;;13.05;10.82;;;;;;;;;;5092425;28;20826;-62
2022/03/16 05:07:54;;;;;;;12.73;11.02;;;;;;;;;;5075405;28;20382;-62
2022/03/16 05:10:21;;;;;;;13.57;11.30;;;;;;;;;;5093376;28;20382;-63
2022/03/16 05:12:47;;;;;;;12.60;10.90;;;;;;;;;;5075842;28;20366;-61
2022/03/16 05:15:17;;;;;;;12.73;10.52;;;;;;;;;;5074283;28;20452;-61
2022/03/16 05:17:43;;;;;;;13.52;10.50;;;;;;;;;;5074505;28;20416;-61
2022/03/16 05:20:09;;;;;;;13.18;11.10;;;;;;;;;;5074222;28;20389;-61
2022/03/16 05:22:45;;;;;;;13.60;10.88;;;;;;;;;;5092403;28;20872;-61
2022/03/16 05:25:12;;;;;;;16.75;12.93;;;;;;;;;;5074089;28;20423;-62
2022/03/16 05:27:38;;;;;;;13.88;10.95;;;;;;;;;;5092415;28;20469;-61
2022/03/16 05:30:05;;;;;;;11.90;10.57;;;;;;;;;;5074538;28;20393;-61
2022/03/16 05:32:31;;;;;;;12.93;11.13;;;;;;;;;;5092328;28;20438;-61
2022/03/16 05:34:57;;;;;;;15.07;11.02;;;;;;;;;;5092079;28;20409;-61
2022/03/16 05:37:23;;;;;;;14.18;11.20;;;;;;;;;;5092018;28;20382;-61
2022/03/16 05:39:49;;;;;;;14.07;11.37;;;;;;;;;;5092109;28;20378;-61
2022/03/16 05:42:15;;;;;;;15.40;11.27;;;;;;;;;;5092541;28;20402;-61
2022/03/16 05:44:41;;;;;;;14.65;11.27;;;;;;;;;;5091994;28;20711;-61
2022/03/16 05:47:07;;;;;;;13.10;11.18;;;;;;;;;;5074087;28;20473;-61
2022/03/16 05:49:33;;;;;;;14.65;11.50;;;;;;;;;;5074542;28;20378;-61
2022/03/16 05:51:59;;;;;;;12.38;10.65;;;;;;;;;;5074513;28;20884;-61
2022/03/16 05:54:25;;;;;;;12.63;10.93;;;;;;;;;;5092024;28;20396;-61
2022/03/16 05:56:51;;;;;;;13.90;11.23;;;;;;;;;;5092394;28;20370;-62
2022/03/16 05:59:17;;;;;;;14.82;11.80;;;;;;;;;;5094710;28;20742;-61
2022/03/16 06:01:43;;;;;;;17.23;12.63;;;;;;;;;;5077732;28;20374;-61
2022/03/16 06:04:09;;;;;;;15.52;11.80;;;;;;;;;;5077406;28;20386;-62
2022/03/16 06:06:34;;;;;;;15.25;12.40;;;;;;;;;;5095535;28;20378;-62
2022/03/16 06:09:00;;;;;;;15.77;12.50;;;;;;;;;;5095990;28;20382;-63
2022/03/16 06:11:29;;;;;;;15.45;12.63;;;;;;;;;;5095359;28;20389;-62
2022/03/16 06:13:55;;;;;;;16.92;12.13;;;;;;;;;;5095342;28;20431;-62
2022/03/16 06:16:21;;;;;;;16.40;11.77;;;;;;;;;;5077130;28;20383;-62
2022/03/16 06:18:47;;;;;;;19.67;12.63;;;;;;;;;;5095254;28;20385;-62
2022/03/16 06:21:13;;;;;;;14.77;12.38;;;;;;;;;;5078023;28;20366;-62
2022/03/16 06:23:39;;;;;;;19.45;12.90;;;;;;;;;;5076765;28;20402;-63
2022/03/16 06:26:05;;;;;;;16.35;12.70;;;;;;;;;;5095247;28;20393;-62
2022/03/16 06:28:32;;;;;;;15.60;12.55;;;;;;;;;;5076977;28;20378;-62
2022/03/16 06:30:58;;;;;;;15.85;12.15;;;;;;;;;;5095458;28;20390;-62
2022/03/16 06:33:24;;;;;;;20.45;12.32;;;;;;;;;;5095103;28;20464;-63
2022/03/16 06:35:50;;;;;;;15.40;12.25;;;;;;;;;;5076882;28;20809;-62
2022/03/16 06:38:16;;;;;;;15.52;12.25;;;;;;;;;;5077005;28;20413;-62
2022/03/16 06:40:42;;;;;;;16.10;11.43;;;;;;;;;;5094954;28;20757;-60
2022/03/16 06:43:08;;;;;;;16.80;12.30;;;;;;;;;;5076776;28;20431;-60
2022/03/16 06:45:34;;;;;;;16.25;11.75;;;;;;;;;;5077373;28;20738;-61
2022/03/16 06:48:01;;;;;;;15.68;12.52;;;;;;;;;;5076740;28;20382;-60
2022/03/16 06:50:28;;;;;;;17.35;12.50;;;;;;;;;;5076373;28;20386;-60
2022/03/16 06:52:54;;;;;;;15.57;12.63;;;;;;;;;;5094336;28;20479;-60
2022/03/16 06:55:20;;;;;;;21.02;15.15;;;;;;;;;;5076347;28;20402;-61
2022/03/16 06:57:46;;;;;;;22.00;15.80;;;;;;;;;;5094633;28;20956;-61
2022/03/16 07:00:13;;;;;;;22.23;16.08;;;;;;;;;;5094452;28;20401;-61
2022/03/16 07:02:53;;;;;;;22.48;16.40;;;;;;;;;;5076288;28;20409;-61
2022/03/16 07:05:19;;;;;;;18.35;14.85;;;;;;;;;;5076176;28;20374;-61
2022/03/16 07:07:45;;;;;;;18.00;14.13;;;;;;;;;;5075986;28;20758;-61
2022/03/16 07:10:11;;;;;;;18.65;15.25;;;;;;;;;;5092976;28;20869;-61
2022/03/16 07:12:37;;;;;;;19.90;14.02;;;;;;;;;;5076182;28;20386;-62
2022/03/16 07:15:03;;;;;;;17.98;14.55;;;;;;;;;;5094356;28;20429;-61
2022/03/16 07:17:29;;;;;;;18.73;14.85;;;;;;;;;;5094359;28;20397;-61
2022/03/16 07:19:55;;;;;;;18.20;15.18;;;;;;;;;;5075820;28;20866;-61
2022/03/16 07:22:21;;;;;;;19.15;14.60;;;;;;;;;;5076103;28;20476;-61
2022/03/16 07:24:47;;;;;;;22.77;14.40;;;;;;;;;;5094781;28;20393;-62
2022/03/16 07:27:14;;;;;;;18.92;14.93;;;;;;;;;;5075715;28;20389;-61
2022/03/16 07:29:40;;;;;;;20.73;15.43;;;;;;;;;;5094322;28;20406;-61
2022/03/16 07:32:06;;;;;;;22.25;15.60;;;;;;;;;;5094777;28;20405;-61
2022/03/16 07:34:32;;;;;;;19.77;15.15;;;;;;;;;;5094009;28;20520;-61
2022/03/16 07:36:58;;;;;;;;;;;;;;;;;;5095807;28;20380;-61
2022/03/16 07:39:24;;;;;;;21.42;15.65;;;;;;;;;;5094375;28;20405;-62
2022/03/16 07:41:50;;;;;;;19.00;14.77;;;;;;;;;;5093867;28;20515;-62
2022/03/16 07:44:16;;;;;;;18.35;14.50;;;;;;;;;;5075642;28;20385;-62
2022/03/16 07:46:42;;;;;;;15.70;13.20;;;;;;;;;;5094954;28;20386;-62
2022/03/16 07:49:08;;;;;;;13.07;11.13;;;;;;;;;;5095887;28;20192;-62
2022/03/16 07:51:34;;;;;;;18.63;11.70;;;;;;;;;;5095983;28;20260;-62
2022/03/16 07:54:00;;;;;;;16.70;11.97;;;;;;;;;;5077460;28;20204;-63
2022/03/16 07:56:26;;;;;;;17.50;12.00;;;;;;;;;;5077531;28;20165;-62
2022/03/16 07:58:54;;;;;;;17.47;12.17;;;;;;;;;;5095886;28;20170;-62
2022/03/16 08:01:20;;;;;;;19.07;11.63;;;;;;;;;;5076888;28;20263;-62
2022/03/16 08:03:46;;;;;;;19.30;12.20;;;;;;;;;;5095824;28;20232;-62
2022/03/16 08:06:12;;;;;;;16.10;9.47;;;;;;;;;;5096558;28;20181;-62
2022/03/16 08:08:39;;;;;;;18.17;12.27;;;;;;;;;;5096478;28;20178;-62
2022/03/16 08:11:06;;;;;;;15.80;11.13;;;;;;;;;;5096246;28;20588;-62
2022/03/16 08:13:33;;;;;;;14.87;10.23;;;;;;;;;;5096186;28;20224;-62
2022/03/16 08:15:58;;;;;;;13.67;9.20;;;;;;;;;;5095621;28;20200;-61
2022/03/16 08:18:24;;;;;;;13.63;9.53;;;;;;;;;;5095591;28;20649;-62
2022/03/16 08:20:50;;;;;;;13.57;10.10;;;;;;;;;;5097935;28;20538;-62
2022/03/16 08:23:16;;;;;;;10.33;9.23;;;;;;;;;;5098702;28;20223;-63
2022/03/16 08:25:42;;;;;;;14.67;9.37;;;;;;;;;;5105450;28;20165;-63
2022/03/16 08:28:08;;;;;;;15.03;9.30;;;;;;;;;;5105908;28;20227;-62
2022/03/16 08:30:34;;;;;;;11.20;9.27;;;;;;;;;;5087836;28;20181;-63
2022/03/16 08:33:01;;;;;;;11.57;8.97;;;;;;;;;;5078134;28;20659;-62
2022/03/16 08:35:27;;;;;;;10.10;8.20;;;;;;;;;;5095537;28;20200;-62
2022/03/16 08:37:53;;;;;;;11.60;8.60;;;;;;;;;;5077416;28;20234;-62
2022/03/16 08:40:19;;;;;;;11.17;8.77;;;;;;;;;;5094896;28;20241;-62
2022/03/16 08:42:45;;;;;;;9.40;8.40;;;;;;;;;;5095768;28;20613;-63
2022/03/16 08:45:11;;;;;;;11.30;8.90;;;;;;;;;;5077011;28;20181;-61
2022/03/16 08:47:37;;;;;;;13.90;10.03;;;;;;;;;;5094521;28;20182;-62
2022/03/16 08:50:04;;;;;;;10.47;8.67;;;;;;;;;;5076338;28;20187;-62
2022/03/16 08:52:30;;;;;;;11.03;9.10;;;;;;;;;;5099212;28;20185;-63
2022/03/16 08:54:56;;;;;;;9.47;8.20;;;;;;;;;;5111809;28;20209;-63
2022/03/16 08:57:22;;;;;;;13.80;8.43;;;;;;;;;;5112197;28;20223;-65
2022/03/16 08:59:48;;;;;;;11.70;8.97;;;;;;;;;;5111841;28;20200;-62
2022/03/16 09:02:14;;;;;;;12.67;8.47;;;;;;;;;;5113413;28;20177;-64
2022/03/16 09:04:40;;;;;;;9.63;8.63;;;;;;;;;;5102924;28;20326;-62
2022/03/16 09:07:06;;;;;;;9.00;7.67;;;;;;;;;;5094882;28;20329;-62
2022/03/16 09:09:33;;;;;;;10.80;8.70;;;;;;;;;;5075685;28;20177;-61
2022/03/16 09:11:59;;;;;;;9.17;8.03;;;;;;;;;;5076063;28;20660;-62
2022/03/16 09:14:25;;;;;;;13.00;8.77;;;;;;;;;;5093260;28;20201;-62
2022/03/16 09:16:51;;;;;;;11.90;8.53;;;;;;;;;;5076028;28;20181;-62
2022/03/16 09:19:20;;;;;;;10.13;9.10;;;;;;;;;;5075566;28;20234;-62
2022/03/16 09:21:47;;;;;;;10.07;8.60;;;;;;;;;;5094481;28;20165;-62
2022/03/16 09:24:13;;;;;;;9.27;7.43;;;;;;;;;;5093344;28;20657;-61
2022/03/16 09:26:40;;;;;;;11.00;8.40;;;;;;;;;;5075301;28;20178;-61
2022/03/16 09:29:09;;;;;;;9.40;8.20;;;;;;;;;;5093579;28;20180;-62
2022/03/16 09:31:39;;;;;;;10.80;8.33;;;;;;;;;;5075104;28;20189;-62
2022/03/16 09:34:06;;;;;;;13.53;8.03;;;;;;;;;;5077669;28;20193;-62
2022/03/16 09:36:37;;;;;;;9.63;8.50;;;;;;;;;;5097359;28;20170;-62
2022/03/16 09:39:03;;;;;;;12.70;9.33;;;;;;;;;;5097144;28;20176;-62
2022/03/16 09:41:29;;;;;;;10.47;8.73;;;;;;;;;;5078939;28;20184;-62
2022/03/16 09:43:55;;;;;;;11.30;8.40;;;;;;;;;;5078973;28;20284;-62
2022/03/16 09:46:31;;;;;;;9.27;7.63;;;;;;;;;;5097587;28;20177;-62
2022/03/16 09:48:57;;;;;;;11.77;7.93;;;;;;;;;;5096753;28;20184;-62
2022/03/16 09:51:25;;;;;;;13.20;8.77;;;;;;;;;;5096776;28;20211;-61
2022/03/16 09:53:52;;;;;;;12.77;8.90;;;;;;;;;;5096938;28;20189;-62
2022/03/16 09:56:19;;;;;;;14.63;9.37;;;;;;;;;;5093784;22;20594;-62
2022/03/16 09:58:45;;;;;;;9.23;8.10;;;;;;;;;;5076202;28;20202;-62
2022/03/16 10:01:11;;;;;;;9.70;8.20;;;;;;;;;;5075871;28;20652;-62
2022/03/16 10:03:38;;;;;;;9.93;8.43;;;;;;;;;;5058037;28;20263;-62
2022/03/16 10:06:08;;;;;;;10.37;8.30;;;;;;;;;;5076367;28;20251;-62
2022/03/16 10:08:35;;;;;;;10.97;8.10;;;;;;;;;;5058028;28;20260;-62
2022/03/16 10:13:58;;;;;;;13.63;8.37;;;;;;;;;;5076230;28;20243;-62
2022/03/16 10:16:24;;;;;;;10.73;7.30;;;;;;;;;;5076053;28;20340;-62
2022/03/16 10:18:55;;;;;;;10.40;7.90;;;;;;;;;;5076568;28;20547;-62
2022/03/16 10:21:22;;;;;;;8.23;7.33;;;;;;;;;;5058057;28;20265;-62
2022/03/16 10:23:48;;;;;;;8.97;7.10;;;;;;;;;;5075770;28;20169;-63
2022/03/16 10:26:17;;;;;;;9.13;6.53;;;;;;;;;;5075714;28;20569;-63
2022/03/16 10:28:46;;;;;;;9.40;7.97;;;;;;;;;;5075592;28;20182;-63
2022/03/16 10:31:14;;;;;;;8.93;7.83;;;;;;;;;;5075903;28;20251;-63
2022/03/16 10:33:51;;;;;;;14.97;8.70;;;;;;;;;;5057730;28;20641;-63
2022/03/16 10:36:18;;;;;;;8.97;7.70;;;;;;;;;;5057309;28;20266;-63
2022/03/16 10:38:45;;;;;;;8.87;7.07;;;;;;;;;;5075471;28;20169;-63
2022/03/16 10:41:12;;;;;;;8.30;6.63;;;;;;;;;;5075623;28;20681;-63
2022/03/16 10:46:35;;;;;;;10.33;7.43;;;;;;;;;;5075371;28;20215;-63
2022/03/16 10:49:12;;;;;;;7.83;6.03;;;;;;;;;;5057205;28;20220;-62
2022/03/16 10:51:38;;;;;;;6.97;6.27;;;;;;;;;;5057053;28;20181;-62
2022/03/16 10:54:05;;;;;;;7.30;6.43;;;;;;;;;;5074821;28;20674;-63
2022/03/16 10:56:31;;;;;;;7.40;6.67;;;;;;;;;;5074935;28;20236;-62
2022/03/16 10:58:58;;;;;;;7.87;6.47;;;;;;;;;;5056938;28;20315;-63
2022/03/16 11:01:26;;;;;;;8.03;6.60;;;;;;;;;;5074851;28;20177;-62
2022/03/16 11:03:52;;;;;;;7.73;6.93;;;;;;;;;;5074837;28;20227;-62
2022/03/16 11:06:23;;;;;;;7.53;5.93;;;;;;;;;;5074728;28;20194;-62
2022/03/16 11:08:53;;;;;;;7.07;6.07;;;;;;;;;;5074968;28;20556;-64
2022/03/16 11:14:04;;;;;;;6.07;5.47;;;;;;;;;;5075175;28;20250;-63
2022/03/16 11:16:33;;;;;;;9.20;6.23;;;;;;;;;;5074806;28;20221;-63
2022/03/16 11:19:01;;;;;;;7.70;6.20;;;;;;;;;;5074496;28;20261;-62
2022/03/16 11:21:45;;;;;;;7.27;6.13;;;;;;;;;;5074659;28;20235;-62
2022/03/16 11:24:17;;;;;;;7.20;6.03;;;;;;;;;;5074473;28;20174;-63
2022/03/16 11:27:10;;;;;;;7.20;5.50;;;;;;;;;;5074439;28;20197;-63
2022/03/16 11:29:54;;;;;;;9.20;5.93;;;;;;;;;;5037236;28;20202;-65
2022/03/16 11:32:20;;;;;;;7.77;6.07;;;;;;;;;;5074762;28;20257;-62
2022/03/16 11:34:47;;;;;;;9.60;6.30;;;;;;;;;;5074162;28;20202;-62
2022/03/16 11:37:14;;;;;;;6.60;6.00;;;;;;;;;;5074489;28;20219;-65
2022/03/16 11:39:49;;;;;;;6.40;5.60;;;;;;;;;;5056505;28;20182;-62
2022/03/16 11:42:19;;;;;;;6.53;5.83;;;;;;;;;;5056260;28;20323;-62
2022/03/16 11:44:45;;;;;;;6.33;5.73;;;;;;;;;;5074286;28;20207;-61
2022/03/16 11:47:11;;;;;;;6.30;5.70;;;;;;;;;;5073934;28;20208;-63
2022/03/16 11:49:41;;;;;;;6.80;5.40;;;;;;;;;;5074011;28;20185;-62
2022/03/16 11:52:08;;;;;;;9.00;5.73;;;;;;;;;;5074513;28;20181;-62
2022/03/16 11:54:45;;;;;;;5.47;4.97;;;;;;;;;;5055952;28;20208;-62
2022/03/16 11:57:12;;;;;;;6.20;5.10;;;;;;;;;;5073159;28;20243;-63
2022/03/16 11:59:44;;;;;;;6.00;5.27;;;;;;;;;;5055791;28;20178;-64
2022/03/16 12:02:17;;;;;;;6.20;5.13;;;;;;;;;;5074052;28;20165;-63
2022/03/16 12:04:46;;;;;;;5.57;4.93;;;;;;;;;;5073863;28;20171;-62
2022/03/16 12:07:13;;;;;;;5.87;5.07;;;;;;;;;;5073780;28;20259;-62
2022/03/16 12:09:54;;;;;;;5.67;5.07;;;;;;;;;;5073883;28;20281;-64
2022/03/16 12:15:13;;;;;;;5.70;5.17;;;;;;;;;;5073798;28;20216;-63
2022/03/16 12:17:40;;;;;;;5.37;4.87;;;;;;;;;;5056248;28;20563;-63
2022/03/16 12:20:15;;;;;;;5.70;4.60;;;;;;;;;;5073410;28;20184;-63
2022/03/16 12:22:47;;;;;;;7.43;5.40;;;;;;;;;;5055477;28;20254;-63
2022/03/16 12:25:26;;;;;;;6.23;4.87;;;;;;;;;;5073666;28;20622;-63
2022/03/16 12:30:44;;;;;;;6.10;4.80;;;;;;;;;;5073420;28;20626;-62
2022/03/16 12:33:11;;;;;;;5.37;4.63;;;;;;;;;;5055320;28;20182;-62
2022/03/16 12:35:38;;;;;;;5.67;5.00;;;;;;;;;;5073118;28;20212;-62
2022/03/16 12:38:06;;;;;;;5.63;5.03;;;;;;;;;;5073217;28;20174;-62
2022/03/16 12:40:32;;;;;;;6.00;5.40;;;;;;;;;;5073977;28;20311;-62
2022/03/16 12:42:58;;;;;;;6.73;5.13;;;;;;;;;;5073238;28;20227;-61
2022/03/16 12:45:28;;;;;;;6.80;4.90;;;;;;;;;;5055206;28;20177;-61
2022/03/16 12:48:04;;;;;;;5.23;4.23;;;;;;;;;;5055515;28;20202;-60
2022/03/16 12:50:30;;;;;;;5.47;4.97;;;;;;;;;;5055283;28;20235;-62
2022/03/16 12:52:57;;;;;;;5.47;4.97;;;;;;;;;;5073887;28;20691;-62
2022/03/16 12:55:24;;;;;;;5.03;4.60;;;;;;;;;;5073332;28;20212;-62
2022/03/16 12:57:57;;;;;;;5.13;4.57;;;;;;;;;;5073092;28;20190;-63
2022/03/16 13:00:31;;;;;;;4.80;4.33;;;;;;;;;;5073471;28;20566;-63
2022/03/16 13:03:12;;;;;;;5.13;4.63;;;;;;;;;;5055165;28;20174;-62
2022/03/16 13:05:38;;;;;;;5.07;4.47;;;;;;;;;;5073384;28;20165;-62
2022/03/16 13:08:04;;;;;;;7.47;5.03;;;;;;;;;;5076095;28;20170;-62
2022/03/16 13:11:14;;;;;;;5.27;4.50;;;;;;;;;;5077159;28;20177;-62
2022/03/16 13:13:19;;;;;;;22.10;13.03;;;;;;;;;;5077102;28;20279;-63
2022/03/16 13:15:46;;;;;;;8.63;6.63;;;;;;;;;;5077995;28;20212;-62
2022/03/16 13:18:12;;;;;;;29.37;23.97;;;;;;;;;;5058981;28;20182;-62
2022/03/16 13:20:38;;;;;;;15.80;13.13;;;;;;;;;;5076929;28;20522;-63
2022/03/16 13:23:05;;;;;;;9.57;6.67;;;;;;;;;;5058908;28;20178;-63
2022/03/16 13:25:31;;;;;;;8.27;7.40;;;;;;;;;;5076694;28;20181;-63
2022/03/16 13:27:57;;;;;;;6.50;5.83;;;;;;;;;;5076778;28;20196;-63
2022/03/16 13:30:24;;;;;;;8.97;7.23;;;;;;;;;;5076814;28;20269;-63
2022/03/16 13:32:53;;;;;;;5.53;5.03;;;;;;;;;;5077461;28;20184;-63
2022/03/16 13:35:28;;;;;;;5.20;4.27;;;;;;;;;;5076489;28;20205;-62
2022/03/16 13:38:03;;;;;;;4.20;3.77;;;;;;;;;;5076894;28;20227;-62
2022/03/16 13:40:31;;;;;;;5.43;4.30;;;;;;;;;;5076926;28;20188;-63
2022/03/16 13:43:15;;;;;;;5.27;4.00;;;;;;;;;;5076451;28;20607;-64
2022/03/16 13:45:43;;;;;;;5.27;4.27;;;;;;;;;;5058199;28;20176;-64
2022/03/16 13:48:14;;;;;;;3.80;3.50;;;;;;;;;;5076685;28;20648;-62
2022/03/16 13:51:00;;;;;;;7.53;4.40;;;;;;;;;;5076484;28;20170;-62
2022/03/16 13:53:27;;;;;;;8.17;4.40;;;;;;;;;;5076133;28;20182;-63
2022/03/16 13:55:54;;;;;;;4.70;4.10;;;;;;;;;;5076053;28;20217;-62
2022/03/16 13:58:24;;;;;;;5.00;4.10;;;;;;;;;;5076045;28;20526;-63
2022/03/16 14:00:52;;;;;;;5.30;4.40;;;;;;;;;;5058429;28;20205;-64
2022/03/16 14:03:22;;;;;;;6.40;3.97;;;;;;;;;;5076434;28;20174;-62
2022/03/16 14:05:48;;;;;;;4.43;4.03;;;;;;;;;;5075790;28;20209;-62
2022/03/16 14:08:14;;;;;;;4.70;4.30;;;;;;;;;;5076124;28;20178;-63
2022/03/16 14:10:41;;;;;;;5.77;4.03;;;;;;;;;;5075821;28;20181;-62
2022/03/16 14:13:08;;;;;;;4.87;4.27;;;;;;;;;;5057876;28;20186;-63
2022/03/16 14:15:34;;;;;;;5.73;4.30;;;;;;;;;;5076069;28;20718;-63
2022/03/16 14:18:12;;;;;;;4.33;3.70;;;;;;;;;;5075900;28;20215;-63
2022/03/16 14:20:41;;;;;;;6.07;4.43;;;;;;;;;;5075660;28;20307;-64
2022/03/16 14:23:08;;;;;;;7.67;5.30;;;;;;;;;;5075631;28;20166;-63
2022/03/16 14:25:37;;;;;;;6.80;4.20;;;;;;;;;;5075479;28;20178;-65
2022/03/16 14:28:03;;;;;;;4.53;3.90;;;;;;;;;;5057532;28;20186;-63
2022/03/16 14:30:30;;;;;;;5.03;4.23;;;;;;;;;;5075473;28;20247;-65
2022/03/16 14:33:00;;;;;;;8.53;4.03;;;;;;;;;;5075686;28;20263;-63
2022/03/16 14:35:26;;;;;;;6.87;5.03;;;;;;;;;;5057265;28;20217;-64
2022/03/16 14:37:53;;;;;;;6.20;3.70;;;;;;;;;;5075721;28;20630;-63
2022/03/16 14:40:21;;;;;;;4.53;4.10;;;;;;;;;;5075336;28;20178;-62